sensor_id;sensor_type;location;lat;lon;timestamp;temperature;humidity
1377;DHT22;682;52.502;13.488;2024-03-25T00:01:04;6.50;1.00
1377;DHT22;682;52.502;13.488;2024-03-25T00:03:30;6.50;1.00
1377;DHT22;682;52.502;13.488;2024-03-25T00:05:57;6.40;1.00
1377;DHT22;682;52.502;13.488;2024-03-25T00:08:23;6.40;1.00
1377;DHT22;682;52.502;13.488;2024-03-25T00:10:49;6.40;1.00
1377;DHT22;682;52.502;13.488;2024-03-25T00:13:15;6.30;1.00
1377;DHT22;682;52.502;13.488;2024-03-25T00:15:42;6.40;1.00
1377;DHT22;682;52.502;13.488;2024-03-25T00:18:10;6.40;1.00
1377;DHT22;682;52.502;13.488;2024-03-25T00:20:38;6.40;1.00
1377;DHT22;682;52.502;13.488;2024-03-25T00:23:04;6.40;1.00
1377;DHT22;682;52.502;13.488;2024-03-25T00:25:30;6.40;1.00
1377;DHT22;682;52.502;13.488;2024-03-25T00:27:57;6.40;1.00
1377;DHT22;682;52.502;13.488;2024-03-25T00:30:24;6.40;1.00
1377;DHT22;682;52.502;13.488;2024-03-25T00:32:50;6.40;1.00
1377;DHT22;682;52.502;13.488;2024-03-25T00:35:18;6.40;1.00
1377;DHT22;682;52.502;13.488;2024-03-25T00:37:44;6.40;1.00
1377;DHT22;682;52.502;13.488;2024-03-25T00:40:11;6.40;1.00
1377;DHT22;682;52.502;13.488;2024-03-25T00:42:37;6.40;1.00
1377;DHT22;682;52.502;13.488;2024-03-25T00:45:05;6.40;1.00
1377;DHT22;682;52.502;13.488;2024-03-25T00:47:31;6.40;1.00
1377;DHT22;682;52.502;13.488;2024-03-25T00:49:58;6.40;1.00
1377;DHT22;682;52.502;13.488;2024-03-25T00:52:26;6.30;1.00
1377;DHT22;682;52.502;13.488;2024-03-25T00:54:53;6.30;1.00
1377;DHT22;682;52.502;13.488;2024-03-25T00:57:19;6.30;1.00
1377;DHT22;682;52.502;13.488;2024-03-25T00:59:46;6.30;1.00
1377;DHT22;682;52.502;13.488;2024-03-25T01:02:12;6.30;1.00
1377;DHT22;682;52.502;13.488;2024-03-25T01:04:39;6.40;1.00
1377;DHT22;682;52.502;13.488;2024-03-25T01:07:05;6.40;1.00
1377;DHT22;682;52.502;13.488;2024-03-25T01:09:33;6.40;1.00
1377;DHT22;682;52.502;13.488;2024-03-25T01:11:59;6.40;1.00
1377;DHT22;682;52.502;13.488;2024-03-25T01:14:26;6.40;1.00
1377;DHT22;682;52.502;13.488;2024-03-25T01:16:52;6.40;1.00
1377;DHT22;682;52.502;13.488;2024-03-25T01:19:19;6.30;1.00
1377;DHT22;682;52.502;13.488;2024-03-25T01:21:46;6.40;1.00
1377;DHT22;682;52.502;13.488;2024-03-25T01:24:13;6.40;1.00
1377;DHT22;682;52.502;13.488;2024-03-25T01:26:41;6.40;1.00
1377;DHT22;682;52.502;13.488;2024-03-25T01:29:08;6.30;1.00
1377;DHT22;682;52.502;13.488;2024-03-25T01:31:34;6.30;1.00
1377;DHT22;682;52.502;13.488;2024-03-25T01:34:01;6.30;1.00
1377;DHT22;682;52.502;13.488;2024-03-25T01:36:30;6.30;1.00
1377;DHT22;682;52.502;13.488;2024-03-25T01:38:57;6.40;1.00
1377;DHT22;682;52.502;13.488;2024-03-25T01:41:23;6.40;1.00
1377;DHT22;682;52.502;13.488;2024-03-25T01:43:52;6.40;1.00
1377;DHT22;682;52.502;13.488;2024-03-25T01:46:18;6.40;1.00
1377;DHT22;682;52.502;13.488;2024-03-25T01:48:47;6.40;1.00
1377;DHT22;682;52.502;13.488;2024-03-25T01:51:16;6.40;1.00
1377;DHT22;682;52.502;13.488;2024-03-25T01:53:44;6.50;1.00
1377;DHT22;682;52.502;13.488;2024-03-25T01:56:13;6.50;1.00
1377;DHT22;682;52.502;13.488;2024-03-25T01:58:40;6.50;1.00
1377;DHT22;682;52.502;13.488;2024-03-25T02:01:09;6.50;1.00
1377;DHT22;682;52.502;13.488;2024-03-25T02:03:39;6.60;1.00
1377;DHT22;682;52.502;13.488;2024-03-25T02:06:13;6.60;1.00
1377;DHT22;682;52.502;13.488;2024-03-25T02:08:42;6.70;1.00
1377;DHT22;682;52.502;13.488;2024-03-25T02:11:09;6.70;1.00
1377;DHT22;682;52.502;13.488;2024-03-25T02:13:38;6.80;1.00
1377;DHT22;682;52.502;13.488;2024-03-25T02:16:05;6.70;1.00
1377;DHT22;682;52.502;13.488;2024-03-25T02:18:33;6.60;1.00
1377;DHT22;682;52.502;13.488;2024-03-25T02:21:00;6.50;1.00
1377;DHT22;682;52.502;13.488;2024-03-25T02:23:27;6.40;1.00
1377;DHT22;682;52.502;13.488;2024-03-25T02:25:54;6.30;1.00
1377;DHT22;682;52.502;13.488;2024-03-25T02:28:21;6.30;1.00
1377;DHT22;682;52.502;13.488;2024-03-25T02:30:47;6.20;1.00
1377;DHT22;682;52.502;13.488;2024-03-25T02:33:14;6.20;1.00
1377;DHT22;682;52.502;13.488;2024-03-25T02:35:41;6.20;1.00
1377;DHT22;682;52.502;13.488;2024-03-25T02:38:09;6.10;1.00
1377;DHT22;682;52.502;13.488;2024-03-25T02:40:35;6.10;1.00
1377;DHT22;682;52.502;13.488;2024-03-25T02:43:04;6.10;1.00
1377;DHT22;682;52.502;13.488;2024-03-25T02:45:32;6.10;1.00
1377;DHT22;682;52.502;13.488;2024-03-25T02:47:59;6.20;1.00
1377;DHT22;682;52.502;13.488;2024-03-25T02:50:25;6.20;1.00
1377;DHT22;682;52.502;13.488;2024-03-25T02:52:52;6.20;1.00
1377;DHT22;682;52.502;13.488;2024-03-25T02:55:19;6.10;1.00
1377;DHT22;682;52.502;13.488;2024-03-25T02:57:45;6.10;1.00
1377;DHT22;682;52.502;13.488;2024-03-25T03:00:14;6.10;1.00
1377;DHT22;682;52.502;13.488;2024-03-25T03:02:40;6.10;1.00
1377;DHT22;682;52.502;13.488;2024-03-25T03:05:07;6.10;1.00
1377;DHT22;682;52.502;13.488;2024-03-25T03:07:33;6.10;1.00
1377;DHT22;682;52.502;13.488;2024-03-25T03:10:00;6.10;1.00
1377;DHT22;682;52.502;13.488;2024-03-25T03:12:26;6.10;1.00
1377;DHT22;682;52.502;13.488;2024-03-25T03:14:53;6.00;1.00
1377;DHT22;682;52.502;13.488;2024-03-25T03:17:20;6.00;1.00
1377;DHT22;682;52.502;13.488;2024-03-25T03:19:47;6.00;1.00
1377;DHT22;682;52.502;13.488;2024-03-25T03:22:14;6.10;1.00
1377;DHT22;682;52.502;13.488;2024-03-25T03:24:40;6.00;1.00
1377;DHT22;682;52.502;13.488;2024-03-25T03:27:07;6.00;1.00
1377;DHT22;682;52.502;13.488;2024-03-25T03:29:33;6.10;1.00
1377;DHT22;682;52.502;13.488;2024-03-25T03:32:00;6.10;1.00
1377;DHT22;682;52.502;13.488;2024-03-25T03:34:28;6.10;1.00
1377;DHT22;682;52.502;13.488;2024-03-25T03:36:54;6.10;1.00
1377;DHT22;682;52.502;13.488;2024-03-25T03:39:20;6.20;1.00
1377;DHT22;682;52.502;13.488;2024-03-25T03:41:47;6.20;1.00
1377;DHT22;682;52.502;13.488;2024-03-25T03:44:13;6.20;1.00
1377;DHT22;682;52.502;13.488;2024-03-25T03:46:41;6.20;1.00
1377;DHT22;682;52.502;13.488;2024-03-25T03:49:06;6.20;1.00
1377;DHT22;682;52.502;13.488;2024-03-25T03:51:35;6.20;1.00
1377;DHT22;682;52.502;13.488;2024-03-25T03:54:00;6.20;1.00
1377;DHT22;682;52.502;13.488;2024-03-25T03:56:27;6.10;1.00
1377;DHT22;682;52.502;13.488;2024-03-25T03:58:53;6.10;1.00
1377;DHT22;682;52.502;13.488;2024-03-25T04:01:20;6.10;1.00
1377;DHT22;682;52.502;13.488;2024-03-25T04:03:46;6.00;1.00
1377;DHT22;682;52.502;13.488;2024-03-25T04:06:15;6.00;1.00
1377;DHT22;682;52.502;13.488;2024-03-25T04:08:42;6.00;1.00
1377;DHT22;682;52.502;13.488;2024-03-25T04:11:11;6.10;1.00
1377;DHT22;682;52.502;13.488;2024-03-25T04:13:37;6.10;1.00
1377;DHT22;682;52.502;13.488;2024-03-25T04:16:05;6.10;1.00
1377;DHT22;682;52.502;13.488;2024-03-25T04:18:32;6.10;1.00
1377;DHT22;682;52.502;13.488;2024-03-25T04:21:03;6.10;1.00
1377;DHT22;682;52.502;13.488;2024-03-25T04:23:30;6.10;1.00
1377;DHT22;682;52.502;13.488;2024-03-25T04:26:01;6.10;1.00
1377;DHT22;682;52.502;13.488;2024-03-25T04:28:27;6.10;1.00
1377;DHT22;682;52.502;13.488;2024-03-25T04:30:54;6.00;1.00
1377;DHT22;682;52.502;13.488;2024-03-25T04:33:20;6.00;1.00
1377;DHT22;682;52.502;13.488;2024-03-25T04:35:47;6.00;1.00
1377;DHT22;682;52.502;13.488;2024-03-25T04:38:16;6.00;1.00
1377;DHT22;682;52.502;13.488;2024-03-25T04:40:42;6.00;1.00
1377;DHT22;682;52.502;13.488;2024-03-25T04:43:09;6.00;1.00
1377;DHT22;682;52.502;13.488;2024-03-25T04:45:35;6.10;1.00
1377;DHT22;682;52.502;13.488;2024-03-25T04:48:01;6.10;1.00
1377;DHT22;682;52.502;13.488;2024-03-25T04:50:27;6.10;1.00
1377;DHT22;682;52.502;13.488;2024-03-25T04:52:53;6.10;1.00
1377;DHT22;682;52.502;13.488;2024-03-25T04:55:22;6.10;1.00
1377;DHT22;682;52.502;13.488;2024-03-25T04:57:48;6.10;1.00
1377;DHT22;682;52.502;13.488;2024-03-25T05:00:17;6.10;1.00
1377;DHT22;682;52.502;13.488;2024-03-25T05:02:44;6.20;1.00
1377;DHT22;682;52.502;13.488;2024-03-25T05:05:10;6.20;1.00
1377;DHT22;682;52.502;13.488;2024-03-25T05:07:36;6.10;1.00
1377;DHT22;682;52.502;13.488;2024-03-25T05:10:03;6.10;1.00
1377;DHT22;682;52.502;13.488;2024-03-25T05:12:29;6.10;1.00
1377;DHT22;682;52.502;13.488;2024-03-25T05:14:55;6.10;1.00
1377;DHT22;682;52.502;13.488;2024-03-25T05:17:22;6.10;1.00
1377;DHT22;682;52.502;13.488;2024-03-25T05:19:48;6.20;1.00
1377;DHT22;682;52.502;13.488;2024-03-25T05:22:14;6.10;1.00
1377;DHT22;682;52.502;13.488;2024-03-25T05:24:40;6.10;1.00
1377;DHT22;682;52.502;13.488;2024-03-25T05:27:06;6.10;1.00
1377;DHT22;682;52.502;13.488;2024-03-25T05:29:32;6.20;1.00
1377;DHT22;682;52.502;13.488;2024-03-25T05:31:59;6.20;1.00
1377;DHT22;682;52.502;13.488;2024-03-25T05:34:28;6.20;1.00
1377;DHT22;682;52.502;13.488;2024-03-25T05:36:54;6.30;1.00
1377;DHT22;682;52.502;13.488;2024-03-25T05:39:20;6.30;1.00
1377;DHT22;682;52.502;13.488;2024-03-25T05:41:46;6.20;1.00
1377;DHT22;682;52.502;13.488;2024-03-25T05:44:12;6.10;1.00
1377;DHT22;682;52.502;13.488;2024-03-25T05:46:39;6.10;1.00
1377;DHT22;682;52.502;13.488;2024-03-25T05:49:05;6.10;1.00
1377;DHT22;682;52.502;13.488;2024-03-25T05:51:33;6.00;1.00
1377;DHT22;682;52.502;13.488;2024-03-25T05:53:59;6.10;1.00
1377;DHT22;682;52.502;13.488;2024-03-25T05:56:25;6.10;1.00
1377;DHT22;682;52.502;13.488;2024-03-25T05:58:51;6.10;1.00
1377;DHT22;682;52.502;13.488;2024-03-25T06:01:17;6.20;1.00
1377;DHT22;682;52.502;13.488;2024-03-25T06:03:43;6.10;1.00
1377;DHT22;682;52.502;13.488;2024-03-25T06:06:09;6.20;1.00
1377;DHT22;682;52.502;13.488;2024-03-25T06:08:36;6.20;1.00
1377;DHT22;682;52.502;13.488;2024-03-25T06:11:02;6.20;1.00
1377;DHT22;682;52.502;13.488;2024-03-25T06:13:28;6.20;1.00
1377;DHT22;682;52.502;13.488;2024-03-25T06:15:55;6.20;1.00
1377;DHT22;682;52.502;13.488;2024-03-25T06:18:21;6.30;1.00
1377;DHT22;682;52.502;13.488;2024-03-25T06:20:47;6.40;1.00
1377;DHT22;682;52.502;13.488;2024-03-25T06:23:22;6.40;1.00
1377;DHT22;682;52.502;13.488;2024-03-25T06:25:50;6.40;1.00
1377;DHT22;682;52.502;13.488;2024-03-25T06:28:16;6.30;1.00
1377;DHT22;682;52.502;13.488;2024-03-25T06:30:42;6.30;1.00
1377;DHT22;682;52.502;13.488;2024-03-25T06:33:27;6.40;1.00
1377;DHT22;682;52.502;13.488;2024-03-25T06:36:11;6.40;1.00
1377;DHT22;682;52.502;13.488;2024-03-25T06:38:37;6.30;1.00
1377;DHT22;682;52.502;13.488;2024-03-25T06:41:05;6.30;1.00
1377;DHT22;682;52.502;13.488;2024-03-25T06:43:31;6.30;1.00
1377;DHT22;682;52.502;13.488;2024-03-25T06:45:57;6.40;1.00
1377;DHT22;682;52.502;13.488;2024-03-25T06:48:25;6.40;1.00
1377;DHT22;682;52.502;13.488;2024-03-25T06:50:54;6.40;1.00
1377;DHT22;682;52.502;13.488;2024-03-25T06:53:20;6.50;1.00
1377;DHT22;682;52.502;13.488;2024-03-25T06:55:54;6.50;1.00
1377;DHT22;682;52.502;13.488;2024-03-25T06:58:23;6.50;1.00
1377;DHT22;682;52.502;13.488;2024-03-25T07:00:49;6.40;1.00
1377;DHT22;682;52.502;13.488;2024-03-25T07:03:15;6.40;1.00
1377;DHT22;682;52.502;13.488;2024-03-25T07:05:43;6.40;1.00
1377;DHT22;682;52.502;13.488;2024-03-25T07:08:09;6.40;1.00
1377;DHT22;682;52.502;13.488;2024-03-25T07:10:35;6.40;1.00
1377;DHT22;682;52.502;13.488;2024-03-25T07:13:01;6.40;1.00
1377;DHT22;682;52.502;13.488;2024-03-25T07:15:29;6.30;1.00
1377;DHT22;682;52.502;13.488;2024-03-25T07:17:55;6.30;1.00
1377;DHT22;682;52.502;13.488;2024-03-25T07:20:21;6.30;1.00
1377;DHT22;682;52.502;13.488;2024-03-25T07:22:47;6.30;1.00
1377;DHT22;682;52.502;13.488;2024-03-25T07:25:13;6.30;1.00
1377;DHT22;682;52.502;13.488;2024-03-25T07:27:39;6.30;1.00
1377;DHT22;682;52.502;13.488;2024-03-25T07:30:06;6.30;1.00
1377;DHT22;682;52.502;13.488;2024-03-25T07:32:34;6.40;1.00
1377;DHT22;682;52.502;13.488;2024-03-25T07:35:00;6.40;1.00
1377;DHT22;682;52.502;13.488;2024-03-25T07:37:26;6.40;1.00
1377;DHT22;682;52.502;13.488;2024-03-25T07:39:52;6.40;1.00
1377;DHT22;682;52.502;13.488;2024-03-25T07:42:18;6.40;1.00
1377;DHT22;682;52.502;13.488;2024-03-25T07:44:44;6.40;1.00
1377;DHT22;682;52.502;13.488;2024-03-25T07:47:10;6.50;1.00
1377;DHT22;682;52.502;13.488;2024-03-25T07:49:37;6.50;1.00
1377;DHT22;682;52.502;13.488;2024-03-25T07:52:04;6.50;1.00
1377;DHT22;682;52.502;13.488;2024-03-25T07:54:30;6.40;1.00
1377;DHT22;682;52.502;13.488;2024-03-25T07:56:56;6.50;1.00
1377;DHT22;682;52.502;13.488;2024-03-25T07:59:22;6.50;1.00
1377;DHT22;682;52.502;13.488;2024-03-25T08:01:48;6.60;1.00
1377;DHT22;682;52.502;13.488;2024-03-25T08:04:14;6.60;1.00
1377;DHT22;682;52.502;13.488;2024-03-25T08:06:41;6.60;1.00
1377;DHT22;682;52.502;13.488;2024-03-25T08:09:07;6.50;1.00
1377;DHT22;682;52.502;13.488;2024-03-25T08:11:34;6.40;1.00
1377;DHT22;682;52.502;13.488;2024-03-25T08:14:01;6.40;1.00
1377;DHT22;682;52.502;13.488;2024-03-25T08:16:27;6.30;1.00
1377;DHT22;682;52.502;13.488;2024-03-25T08:18:53;6.30;1.00
1377;DHT22;682;52.502;13.488;2024-03-25T08:21:19;6.40;1.00
1377;DHT22;682;52.502;13.488;2024-03-25T08:23:47;6.40;1.00
1377;DHT22;682;52.502;13.488;2024-03-25T08:26:13;6.50;1.00
1377;DHT22;682;52.502;13.488;2024-03-25T08:28:38;6.60;1.00
1377;DHT22;682;52.502;13.488;2024-03-25T08:31:04;6.70;1.00
1377;DHT22;682;52.502;13.488;2024-03-25T08:33:30;6.80;1.00
1377;DHT22;682;52.502;13.488;2024-03-25T08:35:57;7.00;1.00
1377;DHT22;682;52.502;13.488;2024-03-25T08:38:23;7.20;1.00
1377;DHT22;682;52.502;13.488;2024-03-25T08:40:51;7.30;1.00
1377;DHT22;682;52.502;13.488;2024-03-25T08:43:16;7.20;1.00
1377;DHT22;682;52.502;13.488;2024-03-25T08:45:43;7.20;1.00
1377;DHT22;682;52.502;13.488;2024-03-25T08:48:09;7.20;1.00
1377;DHT22;682;52.502;13.488;2024-03-25T08:50:35;7.30;1.00
1377;DHT22;682;52.502;13.488;2024-03-25T08:53:01;7.40;1.00
1377;DHT22;682;52.502;13.488;2024-03-25T08:55:28;7.30;1.00
1377;DHT22;682;52.502;13.488;2024-03-25T08:57:55;7.20;1.00
1377;DHT22;682;52.502;13.488;2024-03-25T09:00:21;7.10;1.00
1377;DHT22;682;52.502;13.488;2024-03-25T09:02:47;7.20;1.00
1377;DHT22;682;52.502;13.488;2024-03-25T09:05:13;7.20;1.00
1377;DHT22;682;52.502;13.488;2024-03-25T09:07:39;7.10;1.00
1377;DHT22;682;52.502;13.488;2024-03-25T09:10:06;7.10;1.00
1377;DHT22;682;52.502;13.488;2024-03-25T09:12:50;7.30;1.00
1377;DHT22;682;52.502;13.488;2024-03-25T09:15:18;7.30;1.00
1377;DHT22;682;52.502;13.488;2024-03-25T09:17:44;7.30;1.00
1377;DHT22;682;52.502;13.488;2024-03-25T09:20:10;7.20;1.00
1377;DHT22;682;52.502;13.488;2024-03-25T09:22:36;7.30;1.00
1377;DHT22;682;52.502;13.488;2024-03-25T09:25:02;7.50;1.00
1377;DHT22;682;52.502;13.488;2024-03-25T09:27:28;7.40;1.00
1377;DHT22;682;52.502;13.488;2024-03-25T09:29:54;7.40;1.00
1377;DHT22;682;52.502;13.488;2024-03-25T09:32:22;7.50;1.00
1377;DHT22;682;52.502;13.488;2024-03-25T09:34:48;7.60;1.00
1377;DHT22;682;52.502;13.488;2024-03-25T09:37:13;7.70;1.00
1377;DHT22;682;52.502;13.488;2024-03-25T09:39:39;7.70;1.00
1377;DHT22;682;52.502;13.488;2024-03-25T09:42:08;7.80;1.00
1377;DHT22;682;52.502;13.488;2024-03-25T09:44:34;7.80;1.00
1377;DHT22;682;52.502;13.488;2024-03-25T09:47:00;7.70;1.00
1377;DHT22;682;52.502;13.488;2024-03-25T09:49:28;7.80;1.00
1377;DHT22;682;52.502;13.488;2024-03-25T09:51:55;7.80;1.00
1377;DHT22;682;52.502;13.488;2024-03-25T09:54:21;7.80;1.00
1377;DHT22;682;52.502;13.488;2024-03-25T09:56:48;7.80;1.00
1377;DHT22;682;52.502;13.488;2024-03-25T09:59:15;7.90;1.00
1377;DHT22;682;52.502;13.488;2024-03-25T10:01:41;7.80;1.00
1377;DHT22;682;52.502;13.488;2024-03-25T10:04:08;7.70;1.00
1377;DHT22;682;52.502;13.488;2024-03-25T10:06:35;7.70;1.00
1377;DHT22;682;52.502;13.488;2024-03-25T10:09:04;8.00;1.00
1377;DHT22;682;52.502;13.488;2024-03-25T10:11:31;8.30;1.00
1377;DHT22;682;52.502;13.488;2024-03-25T10:13:58;8.60;1.00
1377;DHT22;682;52.502;13.488;2024-03-25T10:16:24;9.00;1.00
1377;DHT22;682;52.502;13.488;2024-03-25T10:18:50;9.40;1.00
1377;DHT22;682;52.502;13.488;2024-03-25T10:21:19;9.60;1.00
1377;DHT22;682;52.502;13.488;2024-03-25T10:23:47;9.90;1.00
1377;DHT22;682;52.502;13.488;2024-03-25T10:26:26;9.90;1.00
1377;DHT22;682;52.502;13.488;2024-03-25T10:29:01;9.80;1.00
1377;DHT22;682;52.502;13.488;2024-03-25T10:31:28;9.80;1.00
1377;DHT22;682;52.502;13.488;2024-03-25T10:33:54;9.90;1.00
1377;DHT22;682;52.502;13.488;2024-03-25T10:36:21;9.90;1.00
1377;DHT22;682;52.502;13.488;2024-03-25T10:38:53;9.80;1.00
1377;DHT22;682;52.502;13.488;2024-03-25T10:41:21;9.60;1.00
1377;DHT22;682;52.502;13.488;2024-03-25T10:43:47;9.60;1.00
1377;DHT22;682;52.502;13.488;2024-03-25T10:46:18;9.60;1.00
1377;DHT22;682;52.502;13.488;2024-03-25T10:48:48;9.60;1.00
1377;DHT22;682;52.502;13.488;2024-03-25T10:51:17;9.50;1.00
1377;DHT22;682;52.502;13.488;2024-03-25T10:53:44;9.50;1.00
1377;DHT22;682;52.502;13.488;2024-03-25T10:56:14;9.60;1.00
1377;DHT22;682;52.502;13.488;2024-03-25T10:58:41;9.70;1.00
1377;DHT22;682;52.502;13.488;2024-03-25T11:01:07;9.80;1.00
1377;DHT22;682;52.502;13.488;2024-03-25T11:03:35;10.00;1.00
1377;DHT22;682;52.502;13.488;2024-03-25T11:06:02;10.80;1.00
1377;DHT22;682;52.502;13.488;2024-03-25T11:08:31;11.90;1.00
1377;DHT22;682;52.502;13.488;2024-03-25T11:10:57;12.40;1.00
1377;DHT22;682;52.502;13.488;2024-03-25T11:13:27;12.40;1.00
1377;DHT22;682;52.502;13.488;2024-03-25T11:15:53;12.50;1.00
1377;DHT22;682;52.502;13.488;2024-03-25T11:18:23;13.10;1.00
1377;DHT22;682;52.502;13.488;2024-03-25T11:21:00;13.90;1.00
1377;DHT22;682;52.502;13.488;2024-03-25T11:23:26;13.90;1.00
1377;DHT22;682;52.502;13.488;2024-03-25T11:25:55;13.90;1.00
1377;DHT22;682;52.502;13.488;2024-03-25T11:28:32;13.90;1.00
1377;DHT22;682;52.502;13.488;2024-03-25T11:30:58;14.20;1.00
1377;DHT22;682;52.502;13.488;2024-03-25T11:33:24;14.30;1.00
1377;DHT22;682;52.502;13.488;2024-03-25T11:35:50;14.00;1.00
1377;DHT22;682;52.502;13.488;2024-03-25T11:38:16;13.60;1.00
1377;DHT22;682;52.502;13.488;2024-03-25T11:40:46;13.40;1.00
1377;DHT22;682;52.502;13.488;2024-03-25T11:43:18;13.70;1.00
1377;DHT22;682;52.502;13.488;2024-03-25T11:45:48;14.30;1.00
1377;DHT22;682;52.502;13.488;2024-03-25T11:48:15;14.60;1.00
1377;DHT22;682;52.502;13.488;2024-03-25T11:50:44;14.40;1.00
1377;DHT22;682;52.502;13.488;2024-03-25T11:53:11;14.60;1.00
1377;DHT22;682;52.502;13.488;2024-03-25T11:55:38;14.20;1.00
1377;DHT22;682;52.502;13.488;2024-03-25T11:58:04;13.80;1.00
1377;DHT22;682;52.502;13.488;2024-03-25T12:00:30;13.50;1.00
1377;DHT22;682;52.502;13.488;2024-03-25T12:02:58;12.80;1.00
1377;DHT22;682;52.502;13.488;2024-03-25T12:05:25;12.70;1.00
1377;DHT22;682;52.502;13.488;2024-03-25T12:07:51;12.70;1.00
1377;DHT22;682;52.502;13.488;2024-03-25T12:10:17;12.80;1.00
1377;DHT22;682;52.502;13.488;2024-03-25T12:13:02;13.00;1.00
1377;DHT22;682;52.502;13.488;2024-03-25T12:15:28;13.40;1.00
1377;DHT22;682;52.502;13.488;2024-03-25T12:17:54;13.80;1.00
1377;DHT22;682;52.502;13.488;2024-03-25T12:20:22;13.70;1.00
1377;DHT22;682;52.502;13.488;2024-03-25T12:22:49;13.80;1.00
1377;DHT22;682;52.502;13.488;2024-03-25T12:25:15;14.00;1.00
1377;DHT22;682;52.502;13.488;2024-03-25T12:27:41;14.60;1.00
1377;DHT22;682;52.502;13.488;2024-03-25T12:30:12;15.10;1.00
1377;DHT22;682;52.502;13.488;2024-03-25T12:32:39;16.80;1.00
1377;DHT22;682;52.502;13.488;2024-03-25T12:35:11;17.60;1.00
1377;DHT22;682;52.502;13.488;2024-03-25T12:37:40;17.30;1.00
1377;DHT22;682;52.502;13.488;2024-03-25T12:40:09;16.60;1.00
1377;DHT22;682;52.502;13.488;2024-03-25T12:42:36;15.80;1.00
1377;DHT22;682;52.502;13.488;2024-03-25T12:45:03;14.70;1.00
1377;DHT22;682;52.502;13.488;2024-03-25T12:47:29;13.80;1.00
1377;DHT22;682;52.502;13.488;2024-03-25T12:49:55;13.30;1.00
1377;DHT22;682;52.502;13.488;2024-03-25T12:52:21;13.00;1.00
1377;DHT22;682;52.502;13.488;2024-03-25T12:54:48;12.80;1.00
1377;DHT22;682;52.502;13.488;2024-03-25T12:57:15;12.70;1.00
1377;DHT22;682;52.502;13.488;2024-03-25T12:59:40;12.50;1.00
1377;DHT22;682;52.502;13.488;2024-03-25T13:02:09;12.30;1.00
1377;DHT22;682;52.502;13.488;2024-03-25T13:04:36;12.10;1.00
1377;DHT22;682;52.502;13.488;2024-03-25T13:07:03;11.80;1.00
1377;DHT22;682;52.502;13.488;2024-03-25T13:09:29;11.70;1.00
1377;DHT22;682;52.502;13.488;2024-03-25T13:11:57;11.80;1.00
1377;DHT22;682;52.502;13.488;2024-03-25T13:14:23;11.80;1.00
1377;DHT22;682;52.502;13.488;2024-03-25T13:16:49;11.80;1.00
1377;DHT22;682;52.502;13.488;2024-03-25T13:19:15;11.60;1.00
1377;DHT22;682;52.502;13.488;2024-03-25T13:21:41;11.40;1.00
1377;DHT22;682;52.502;13.488;2024-03-25T13:24:07;11.40;1.00
1377;DHT22;682;52.502;13.488;2024-03-25T13:26:34;11.40;1.00
1377;DHT22;682;52.502;13.488;2024-03-25T13:29:01;11.50;1.00
1377;DHT22;682;52.502;13.488;2024-03-25T13:31:28;11.80;1.00
1377;DHT22;682;52.502;13.488;2024-03-25T13:33:54;12.10;1.00
1377;DHT22;682;52.502;13.488;2024-03-25T13:36:20;12.30;1.00
1377;DHT22;682;52.502;13.488;2024-03-25T13:38:46;12.40;1.00
1377;DHT22;682;52.502;13.488;2024-03-25T13:41:12;12.60;1.00
1377;DHT22;682;52.502;13.488;2024-03-25T13:43:42;12.70;1.00
1377;DHT22;682;52.502;13.488;2024-03-25T13:46:09;12.70;1.00
1377;DHT22;682;52.502;13.488;2024-03-25T13:48:36;12.80;1.00
1377;DHT22;682;52.502;13.488;2024-03-25T13:51:02;13.00;1.00
1377;DHT22;682;52.502;13.488;2024-03-25T13:53:28;13.20;1.00
1377;DHT22;682;52.502;13.488;2024-03-25T13:55:54;13.30;1.00
1377;DHT22;682;52.502;13.488;2024-03-25T13:58:20;13.40;1.00
1377;DHT22;682;52.502;13.488;2024-03-25T14:00:46;13.50;1.00
1377;DHT22;682;52.502;13.488;2024-03-25T14:03:17;13.60;1.00
1377;DHT22;682;52.502;13.488;2024-03-25T14:05:43;14.10;1.00
1377;DHT22;682;52.502;13.488;2024-03-25T14:08:09;14.40;1.00
1377;DHT22;682;52.502;13.488;2024-03-25T14:10:35;14.60;1.00
1377;DHT22;682;52.502;13.488;2024-03-25T14:13:02;14.80;1.00
1377;DHT22;682;52.502;13.488;2024-03-25T14:15:28;14.90;1.00
1377;DHT22;682;52.502;13.488;2024-03-25T14:17:54;14.80;1.00
1377;DHT22;682;52.502;13.488;2024-03-25T14:20:21;14.50;1.00
1377;DHT22;682;52.502;13.488;2024-03-25T14:22:47;14.20;1.00
1377;DHT22;682;52.502;13.488;2024-03-25T14:25:13;14.00;1.00
1377;DHT22;682;52.502;13.488;2024-03-25T14:27:39;13.80;1.00
1377;DHT22;682;52.502;13.488;2024-03-25T14:30:06;13.80;1.00
1377;DHT22;682;52.502;13.488;2024-03-25T14:32:32;13.90;1.00
1377;DHT22;682;52.502;13.488;2024-03-25T14:35:00;13.70;1.00
1377;DHT22;682;52.502;13.488;2024-03-25T14:37:27;13.60;1.00
1377;DHT22;682;52.502;13.488;2024-03-25T14:39:54;13.30;1.00
1377;DHT22;682;52.502;13.488;2024-03-25T14:42:20;13.00;1.00
1377;DHT22;682;52.502;13.488;2024-03-25T14:44:46;12.80;1.00
1377;DHT22;682;52.502;13.488;2024-03-25T14:47:12;12.60;1.00
1377;DHT22;682;52.502;13.488;2024-03-25T14:49:38;12.30;1.00
1377;DHT22;682;52.502;13.488;2024-03-25T14:52:06;12.00;1.00
1377;DHT22;682;52.502;13.488;2024-03-25T14:54:37;11.80;1.00
1377;DHT22;682;52.502;13.488;2024-03-25T14:57:03;11.70;1.00
1377;DHT22;682;52.502;13.488;2024-03-25T14:59:29;11.60;1.00
1377;DHT22;682;52.502;13.488;2024-03-25T15:01:59;11.50;1.00
1377;DHT22;682;52.502;13.488;2024-03-25T15:04:26;11.30;1.00
1377;DHT22;682;52.502;13.488;2024-03-25T15:06:52;11.30;1.00
1377;DHT22;682;52.502;13.488;2024-03-25T15:09:18;11.40;1.00
1377;DHT22;682;52.502;13.488;2024-03-25T15:11:45;11.40;1.00
1377;DHT22;682;52.502;13.488;2024-03-25T15:14:11;11.40;1.00
1377;DHT22;682;52.502;13.488;2024-03-25T15:16:37;11.40;1.00
1377;DHT22;682;52.502;13.488;2024-03-25T15:19:04;11.40;1.00
1377;DHT22;682;52.502;13.488;2024-03-25T15:21:30;11.30;1.00
1377;DHT22;682;52.502;13.488;2024-03-25T15:23:57;11.30;1.00
1377;DHT22;682;52.502;13.488;2024-03-25T15:26:23;11.20;1.00
1377;DHT22;682;52.502;13.488;2024-03-25T15:28:51;11.10;1.00
1377;DHT22;682;52.502;13.488;2024-03-25T15:31:17;11.00;1.00
1377;DHT22;682;52.502;13.488;2024-03-25T15:33:43;10.90;1.00
1377;DHT22;682;52.502;13.488;2024-03-25T15:36:09;10.90;1.00
1377;DHT22;682;52.502;13.488;2024-03-25T15:38:37;10.90;1.00
1377;DHT22;682;52.502;13.488;2024-03-25T15:41:03;10.90;1.00
1377;DHT22;682;52.502;13.488;2024-03-25T15:43:29;10.90;1.00
1377;DHT22;682;52.502;13.488;2024-03-25T15:45:57;10.80;1.00
1377;DHT22;682;52.502;13.488;2024-03-25T15:48:24;10.40;1.00
1377;DHT22;682;52.502;13.488;2024-03-25T15:50:51;10.20;1.00
1377;DHT22;682;52.502;13.488;2024-03-25T15:53:17;10.10;1.00
1377;DHT22;682;52.502;13.488;2024-03-25T15:55:43;10.00;1.00
1377;DHT22;682;52.502;13.488;2024-03-25T15:58:09;9.90;1.00
1377;DHT22;682;52.502;13.488;2024-03-25T16:00:35;9.90;1.00
1377;DHT22;682;52.502;13.488;2024-03-25T16:03:04;9.80;1.00
1377;DHT22;682;52.502;13.488;2024-03-25T16:05:30;9.70;1.00
1377;DHT22;682;52.502;13.488;2024-03-25T16:07:57;9.70;1.00
1377;DHT22;682;52.502;13.488;2024-03-25T16:10:23;9.80;1.00
1377;DHT22;682;52.502;13.488;2024-03-25T16:12:49;9.80;1.00
1377;DHT22;682;52.502;13.488;2024-03-25T16:15:15;9.80;1.00
1377;DHT22;682;52.502;13.488;2024-03-25T16:17:41;9.70;1.00
1377;DHT22;682;52.502;13.488;2024-03-25T16:20:10;9.80;1.00
1377;DHT22;682;52.502;13.488;2024-03-25T16:22:36;9.80;1.00
1377;DHT22;682;52.502;13.488;2024-03-25T16:25:04;9.80;1.00
1377;DHT22;682;52.502;13.488;2024-03-25T16:27:30;9.80;1.00